This is the latest recevied weather packets stored in our database for station/object KC1OHT-13. If no packets are shown the sender has not sent any weather packets the latest 1 day(s).
| Time | Temp. | Humidity | Pressure | Rain* | Wind** | Luminosity | Snow |
|---|---|---|---|---|---|---|---|
| 1778102532 | 15° C | 91% | 1004.8 hPa | 0 mm | - | 31 W/m² | - |
| 1778101919 | 15° C | 90% | 1004.9 hPa | 0 mm | - | 47 W/m² | - |
| 1778101616 | 15° C | 90% | 1005.1 hPa | 0 mm | - | 52 W/m² | - |
| 1778101313 | 15° C | 89% | 1004.8 hPa | 0 mm | - | 49 W/m² | - |
| 1778100408 | 15.56° C | 87% | 1005.1 hPa | 0 mm | - | 23 W/m² | - |
| 1778051318 | 16.11° C | 78% | 1007.8 hPa | 0 mm | - | 0 W/m² | - |
| 1778051015 | 16.11° C | 78% | 1007.8 hPa | 0 mm | - | 0 W/m² | - |
| 1778050712 | 16.11° C | 77% | 1007.7 hPa | 0 mm | - | 0 W/m² | - |
| 1778050410 | 16.11° C | 77% | 1007.5 hPa | 0 mm | - | 0 W/m² | - |
| 1778048895 | 15.56° C | 77% | 1007.7 hPa | 0 mm | - | 0 W/m² | - |
| 1778048288 | 15.56° C | 77% | 1007.6 hPa | 0 mm | - | 0 W/m² | - |
| 1778047985 | 15.56° C | 77% | 1007.6 hPa | 0 mm | - | 0 W/m² | - |
| 1778047077 | 15.56° C | 77% | 1007.8 hPa | 0 mm | - | 0 W/m² | - |
| 1778046168 | 15.56° C | 77% | 1007.8 hPa | 0 mm | - | 0 W/m² | - |
| 1778044050 | 15.56° C | 74% | 1008.2 hPa | 0 mm | - | 0 W/m² | - |
| 1778043747 | 15.56° C | 73% | 1008.5 hPa | 0 mm | - | 0 W/m² | - |
| 1778043444 | 16.11° C | 73% | 1008.4 hPa | 0 mm | - | 0 W/m² | - |
| 1778042838 | 16.11° C | 72% | 1008.3 hPa | 0 mm | - | 0 W/m² | - |
| 1778042233 | 15.56° C | 72% | 1008.2 hPa | 0 mm | - | 0 W/m² | - |
| 1778041629 | 15.56° C | 72% | 1008.3 hPa | 0 mm | - | 0 W/m² | - |
| 1778041327 | 16.11° C | 71% | 1008.4 hPa | 0 mm | - | 0 W/m² | - |
| 1778041025 | 16.11° C | 71% | 1008.4 hPa | 0 mm | - | 0 W/m² | - |
| 1778040722 | 15.56° C | 72% | 1008.3 hPa | 0 mm | - | 0 W/m² | - |
| 1778040419 | 15.56° C | 72% | 1008.3 hPa | 0 mm | - | 0 W/m² | - |
| 1778040116 | 15.56° C | 72% | 1008.4 hPa | 0 mm | - | 0 W/m² | - |
* Rain latest hour (hover to see other rain measurements)
** Current wind speed in m/s (hover to see current wind gust speed)